createdAt,value
2019-04-06T00:00:10.078Z,10.79
2019-04-06T00:01:10.055Z,10.81
2019-04-06T00:02:10.055Z,10.71
2019-04-06T00:03:10.042Z,10.73
2019-04-06T00:04:10.015Z,10.73
2019-04-06T00:05:10.013Z,10.71
2019-04-06T00:06:10.045Z,10.70
2019-04-06T00:07:10.004Z,10.67
2019-04-06T00:08:09.979Z,10.73
2019-04-06T00:09:09.961Z,10.71
2019-04-06T00:10:09.953Z,10.74
2019-04-06T00:11:09.950Z,10.67
2019-04-06T00:12:09.969Z,10.55
2019-04-06T00:13:09.916Z,10.48
2019-04-06T00:14:09.919Z,10.52
2019-04-06T00:15:09.898Z,10.59
2019-04-06T00:16:09.882Z,10.52
2019-04-06T00:17:09.879Z,10.53
2019-04-06T00:18:09.869Z,10.55
2019-04-06T00:19:09.858Z,10.51
2019-04-06T00:20:09.841Z,10.53
2019-04-06T00:21:09.828Z,10.44
2019-04-06T00:22:09.825Z,10.55
2019-04-06T00:23:09.817Z,10.56
2019-04-06T00:24:09.803Z,10.67
2019-04-06T00:25:09.858Z,10.59
2019-04-06T00:26:09.769Z,10.42
2019-04-06T00:27:09.791Z,10.48
2019-04-06T00:28:09.774Z,10.34
2019-04-06T00:29:09.758Z,10.38
2019-04-06T00:30:09.723Z,10.45
2019-04-06T00:31:09.731Z,10.36
2019-04-06T00:32:09.739Z,10.42
2019-04-06T00:33:09.694Z,10.41
2019-04-06T00:34:09.679Z,10.38
2019-04-06T00:35:09.691Z,10.32
2019-04-06T00:36:09.654Z,10.42
2019-04-06T00:37:09.645Z,10.34
2019-04-06T00:38:09.653Z,10.36
2019-04-06T00:39:09.629Z,10.29
2019-04-06T00:40:09.622Z,10.42
2019-04-06T00:41:09.646Z,10.36
2019-04-06T00:42:09.596Z,10.33
2019-04-06T00:43:09.597Z,10.38
2019-04-06T00:44:09.596Z,10.26
2019-04-06T00:45:09.569Z,10.22
2019-04-06T00:46:09.563Z,10.33
2019-04-06T00:47:09.583Z,10.33
2019-04-06T00:48:09.555Z,10.36
2019-04-06T00:49:09.526Z,10.33
2019-04-06T00:50:09.522Z,10.34
2019-04-06T00:51:09.495Z,10.40
2019-04-06T00:52:09.493Z,10.23
2019-04-06T00:53:09.498Z,10.18
2019-04-06T00:54:09.467Z,10.23
2019-04-06T00:55:09.450Z,10.27
2019-04-06T00:56:09.445Z,10.25
2019-04-06T00:57:09.425Z,10.22
2019-04-06T00:58:09.429Z,10.26
2019-04-06T00:59:09.398Z,10.22
2019-04-06T01:00:09.398Z,10.23
2019-04-06T01:01:09.376Z,10.29
2019-04-06T01:02:09.381Z,10.33
2019-04-06T01:03:09.384Z,10.26
2019-04-06T01:04:09.364Z,10.29
2019-04-06T01:05:09.350Z,10.36
2019-04-06T01:06:09.333Z,10.34
2019-04-06T01:07:09.323Z,10.33
2019-04-06T01:08:09.331Z,10.29
2019-04-06T01:09:09.305Z,10.36
2019-04-06T01:10:09.286Z,10.42
2019-04-06T01:11:09.273Z,10.42
2019-04-06T01:12:09.263Z,10.42
2019-04-06T01:13:09.276Z,10.53
2019-04-06T01:14:09.246Z,10.48
2019-04-06T01:15:09.240Z,10.61
2019-04-06T01:16:09.223Z,10.66
2019-04-06T01:17:09.204Z,10.68
2019-04-06T01:18:09.231Z,10.64
2019-04-06T01:19:09.299Z,10.73
2019-04-06T01:20:09.184Z,10.78
2019-04-06T01:21:09.159Z,10.86
2019-04-06T01:22:09.156Z,10.94
2019-04-06T01:23:09.141Z,10.99
2019-04-06T01:24:09.145Z,11.00
2019-04-06T01:25:09.135Z,11.00
2019-04-06T01:26:09.127Z,11.02
2019-04-06T01:27:09.099Z,11.11
2019-04-06T01:28:09.099Z,11.10
2019-04-06T01:29:09.116Z,11.21
2019-04-06T01:30:09.059Z,11.19
2019-04-06T01:31:09.059Z,11.28
2019-04-06T01:32:09.036Z,11.32
2019-04-06T01:33:09.067Z,11.35
2019-04-06T01:34:09.032Z,11.37
2019-04-06T01:35:09.027Z,11.42
2019-04-06T01:36:08.996Z,11.49
2019-04-06T01:37:09.000Z,11.49
2019-04-06T01:38:09.002Z,11.54
2019-04-06T01:39:08.983Z,11.60
2019-04-06T01:40:08.948Z,11.62
2019-04-06T01:41:08.953Z,11.61
2019-04-06T01:42:08.924Z,11.60
2019-04-06T01:43:08.984Z,11.64
2019-04-06T01:44:08.933Z,11.65
2019-04-06T01:45:08.893Z,11.76
2019-04-06T01:46:08.887Z,11.67
2019-04-06T01:47:08.864Z,11.70
2019-04-06T01:48:08.866Z,11.78
2019-04-06T01:49:08.885Z,11.76
2019-04-06T01:50:08.838Z,11.75
2019-04-06T01:51:08.871Z,11.75
2019-04-06T01:52:08.907Z,11.83
2019-04-06T01:53:08.806Z,11.83
2019-04-06T01:54:08.822Z,11.75
2019-04-06T01:55:08.883Z,11.80
2019-04-06T01:56:17.893Z,11.79
2019-04-06T01:57:09.824Z,11.78
2019-04-06T01:58:08.837Z,11.78
2019-04-06T01:59:08.756Z,11.78
2019-04-06T02:00:08.737Z,11.80
2019-04-06T02:01:08.721Z,11.82
2019-04-06T02:02:08.699Z,11.80
2019-04-06T02:03:08.701Z,11.80
2019-04-06T02:04:08.700Z,11.85
2019-04-06T02:05:08.675Z,11.83
2019-04-06T02:06:08.654Z,11.75
2019-04-06T02:07:08.763Z,11.86
2019-04-06T02:08:08.636Z,11.85
2019-04-06T02:09:08.644Z,11.85
2019-04-06T02:10:08.622Z,11.90
2019-04-06T02:11:08.604Z,11.85
2019-04-06T02:12:08.592Z,11.88
2019-04-06T02:13:08.639Z,11.90
2019-04-06T02:14:08.594Z,11.85
2019-04-06T02:15:08.562Z,11.83
2019-04-06T02:16:08.549Z,11.86
2019-04-06T02:17:08.575Z,11.86
2019-04-06T02:18:08.529Z,11.80
2019-04-06T02:19:08.545Z,11.85
2019-04-06T02:20:08.513Z,11.80
2019-04-06T02:21:08.513Z,11.90
2019-04-06T02:22:08.498Z,11.80
2019-04-06T02:23:08.477Z,11.86
2019-04-06T02:24:08.474Z,11.90
2019-04-06T02:25:08.460Z,11.85
2019-04-06T02:26:08.447Z,11.85
2019-04-06T02:27:08.433Z,11.82
2019-04-06T02:28:08.438Z,11.85
2019-04-06T02:29:08.415Z,11.83
2019-04-06T02:30:08.428Z,11.80
2019-04-06T02:31:08.391Z,11.75
2019-04-06T02:32:08.506Z,11.78
2019-04-06T02:33:08.361Z,11.76
2019-04-06T02:34:08.417Z,11.78
2019-04-06T02:35:08.429Z,11.76
2019-04-06T02:36:08.326Z,11.79
2019-04-06T02:37:08.322Z,11.75
2019-04-06T02:38:08.315Z,11.62
2019-04-06T02:39:08.379Z,11.76
2019-04-06T02:40:08.429Z,11.65
2019-04-06T02:41:08.356Z,11.70
2019-04-06T02:42:08.259Z,11.67
2019-04-06T02:43:08.314Z,11.69
2019-04-06T02:44:08.246Z,11.61
2019-04-06T02:45:08.258Z,11.62
2019-04-06T02:46:08.220Z,11.65
2019-04-06T02:47:08.386Z,11.55
2019-04-06T02:48:08.204Z,11.57
2019-04-06T02:49:08.203Z,11.54
2019-04-06T02:50:08.193Z,11.49
2019-04-06T02:51:08.156Z,11.44
2019-04-06T02:52:08.194Z,11.47
2019-04-06T02:53:08.134Z,11.51
2019-04-06T02:54:08.142Z,11.47
2019-04-06T02:55:08.151Z,11.46
2019-04-06T02:56:08.117Z,11.47
2019-04-06T02:57:08.095Z,11.46
2019-04-06T02:58:08.093Z,11.47
2019-04-06T02:59:08.094Z,11.47
2019-04-06T03:00:08.077Z,11.46
2019-04-06T03:01:08.062Z,11.40
2019-04-06T03:02:08.040Z,11.46
2019-04-06T03:03:08.033Z,11.44
2019-04-06T03:04:08.019Z,11.39
2019-04-06T03:05:08.001Z,11.35
2019-04-06T03:06:08.222Z,11.39
2019-04-06T03:07:07.988Z,11.37
2019-04-06T03:08:07.975Z,11.29
2019-04-06T03:09:11.335Z,11.37
2019-04-06T03:10:08.159Z,11.37
2019-04-06T03:11:07.972Z,11.28
2019-04-06T03:12:07.934Z,11.27
2019-04-06T03:13:07.933Z,11.33
2019-04-06T03:14:07.924Z,11.32
2019-04-06T03:15:08.037Z,11.35
2019-04-06T03:16:07.901Z,11.32
2019-04-06T03:17:07.881Z,11.40
2019-04-06T03:18:07.908Z,11.25
2019-04-06T03:19:07.899Z,11.29
2019-04-06T03:20:07.847Z,11.33
2019-04-06T03:21:07.841Z,11.29
2019-04-06T03:22:07.806Z,11.29
2019-04-06T03:23:07.815Z,11.28
2019-04-06T03:24:07.788Z,11.33
2019-04-06T03:25:07.848Z,11.29
2019-04-06T03:26:07.791Z,11.33
2019-04-06T03:27:07.777Z,11.27
2019-04-06T03:28:07.753Z,11.22
2019-04-06T03:29:07.850Z,11.19
2019-04-06T03:30:08.138Z,11.33
2019-04-06T03:31:07.743Z,11.27
2019-04-06T03:32:07.709Z,11.35
2019-04-06T03:33:07.690Z,11.17
2019-04-06T03:34:07.693Z,11.25
2019-04-06T03:35:07.665Z,11.25
2019-04-06T03:36:07.673Z,11.25
2019-04-06T03:37:07.669Z,11.22
2019-04-06T03:38:07.643Z,11.27
2019-04-06T03:39:07.643Z,11.24
2019-04-06T03:40:07.772Z,11.28
2019-04-06T03:41:07.619Z,11.24
2019-04-06T03:42:10.487Z,11.27
2019-04-06T03:43:07.705Z,11.19
2019-04-06T03:44:07.569Z,11.21
2019-04-06T03:45:07.562Z,11.19
2019-04-06T03:46:07.561Z,11.27
2019-04-06T03:47:07.570Z,11.19
2019-04-06T03:48:07.539Z,11.24
2019-04-06T03:49:07.555Z,11.27
2019-04-06T03:50:07.507Z,11.29
2019-04-06T03:51:07.515Z,11.33
2019-04-06T03:52:07.501Z,11.32
2019-04-06T03:53:07.471Z,11.36
2019-04-06T03:54:07.671Z,11.36
2019-04-06T03:55:07.459Z,11.36
2019-04-06T03:56:07.627Z,11.29
2019-04-06T03:57:14.497Z,11.36
2019-04-06T03:58:08.574Z,11.36
2019-04-06T03:59:07.403Z,11.32
2019-04-06T04:00:07.453Z,11.28
2019-04-06T04:01:07.389Z,11.29
2019-04-06T04:02:07.385Z,11.24
2019-04-06T04:03:07.358Z,11.25
2019-04-06T04:04:07.349Z,11.18
2019-04-06T04:05:07.376Z,11.22
2019-04-06T04:06:07.340Z,11.14
2019-04-06T04:07:07.361Z,11.10
2019-04-06T04:08:07.294Z,11.09
2019-04-06T04:09:07.442Z,11.06
2019-04-06T04:10:07.272Z,11.04
2019-04-06T04:11:07.274Z,11.07
2019-04-06T04:12:07.296Z,11.09
2019-04-06T04:13:07.264Z,11.06
2019-04-06T04:14:07.504Z,11.04
2019-04-06T04:15:07.225Z,11.04
2019-04-06T04:16:07.393Z,10.92
2019-04-06T04:17:07.219Z,10.96
2019-04-06T04:18:07.191Z,11.02
2019-04-06T04:19:07.190Z,10.91
2019-04-06T04:20:07.170Z,10.92
2019-04-06T04:21:07.160Z,10.92
2019-04-06T04:22:07.173Z,11.00
2019-04-06T04:23:07.144Z,10.91
2019-04-06T04:24:07.268Z,10.92
2019-04-06T04:25:07.137Z,10.85
2019-04-06T04:26:07.102Z,10.94
2019-04-06T04:27:07.210Z,10.94
2019-04-06T04:28:07.103Z,10.89
2019-04-06T04:29:07.072Z,10.94
2019-04-06T04:30:07.065Z,10.89
2019-04-06T04:31:07.064Z,10.85
2019-04-06T04:32:07.097Z,10.81
2019-04-06T04:33:07.023Z,10.84
2019-04-06T04:34:07.042Z,10.79
2019-04-06T04:35:07.010Z,10.78
2019-04-06T04:36:07.005Z,10.78
2019-04-06T04:37:07.020Z,10.76
2019-04-06T04:38:07.343Z,10.78
2019-04-06T04:39:06.962Z,10.79
2019-04-06T04:40:06.951Z,10.71
2019-04-06T04:41:06.934Z,10.81
2019-04-06T04:42:06.956Z,10.70
2019-04-06T04:43:06.918Z,10.81
2019-04-06T04:44:06.901Z,10.81
2019-04-06T04:45:06.890Z,10.85
2019-04-06T04:46:06.877Z,10.86
2019-04-06T04:47:07.225Z,10.84
2019-04-06T04:48:06.858Z,10.82
2019-04-06T04:49:06.845Z,10.84
2019-04-06T04:50:06.893Z,10.86
2019-04-06T04:51:06.820Z,10.88
2019-04-06T04:52:06.862Z,10.96
2019-04-06T04:53:06.815Z,10.94
2019-04-06T04:54:06.787Z,10.91
2019-04-06T04:55:06.872Z,10.92
2019-04-06T04:56:06.775Z,11.00
2019-04-06T04:57:06.823Z,10.96
2019-04-06T04:58:06.765Z,11.04
2019-04-06T04:59:06.737Z,11.07
2019-04-06T05:00:06.771Z,11.04
2019-04-06T05:01:06.705Z,11.10
2019-04-06T05:02:07.075Z,11.10
2019-04-06T05:03:06.713Z,11.14
2019-04-06T05:04:06.685Z,11.17
2019-04-06T05:05:09.179Z,11.14
2019-04-06T05:06:06.653Z,11.17
2019-04-06T05:07:06.660Z,11.27
2019-04-06T05:08:06.655Z,11.25
2019-04-06T05:09:06.635Z,11.32
2019-04-06T05:10:06.765Z,11.33
2019-04-06T05:11:06.593Z,11.27
2019-04-06T05:12:06.586Z,11.37
2019-04-06T05:13:06.669Z,11.29
2019-04-06T05:14:06.654Z,11.35
2019-04-06T05:15:06.563Z,11.40
2019-04-06T05:16:06.557Z,11.44
2019-04-06T05:17:06.604Z,11.40
2019-04-06T05:18:06.553Z,11.44
2019-04-06T05:19:06.539Z,11.46
2019-04-06T05:20:06.507Z,11.44
2019-04-06T05:21:06.495Z,11.44
2019-04-06T05:22:06.482Z,11.42
2019-04-06T05:23:06.597Z,11.49
2019-04-06T05:24:06.467Z,11.46
2019-04-06T05:25:06.684Z,11.43
2019-04-06T05:26:06.561Z,11.46
2019-04-06T05:27:06.419Z,11.43
2019-04-06T05:28:06.424Z,11.46
2019-04-06T05:29:06.429Z,11.43
2019-04-06T05:30:06.549Z,11.40
2019-04-06T05:31:06.380Z,11.47
2019-04-06T05:32:06.379Z,11.49
2019-04-06T05:33:06.377Z,11.44
2019-04-06T05:34:06.354Z,11.46
2019-04-06T05:35:06.353Z,11.49
2019-04-06T05:36:06.327Z,11.61
2019-04-06T05:37:06.320Z,11.58
2019-04-06T05:38:06.445Z,11.54
2019-04-06T05:39:06.298Z,11.57
2019-04-06T05:40:06.419Z,11.54
2019-04-06T05:41:06.426Z,11.61
2019-04-06T05:42:06.266Z,11.61
2019-04-06T05:43:06.272Z,11.69
2019-04-06T05:44:06.271Z,11.69
2019-04-06T05:45:06.230Z,11.65
2019-04-06T05:46:06.241Z,11.70
2019-04-06T05:47:06.200Z,11.79
2019-04-06T05:48:06.188Z,11.67
2019-04-06T05:49:06.221Z,11.79
2019-04-06T05:50:06.301Z,11.83
2019-04-06T05:51:06.166Z,11.78
2019-04-06T05:52:06.161Z,11.85
2019-04-06T05:53:06.133Z,11.82
2019-04-06T05:54:06.150Z,11.99
2019-04-06T05:55:06.120Z,11.90
2019-04-06T05:56:06.106Z,12.01
2019-04-06T05:57:06.128Z,12.01
2019-04-06T05:58:09.794Z,12.02
2019-04-06T05:59:06.307Z,12.12
2019-04-06T06:00:09.712Z,12.10
2019-04-06T06:01:06.057Z,12.10
2019-04-06T06:02:09.599Z,12.14
2019-04-06T06:03:06.157Z,12.13
2019-04-06T06:04:06.046Z,12.16
2019-04-06T06:05:06.017Z,12.17
2019-04-06T06:06:06.034Z,12.24
2019-04-06T06:07:05.986Z,12.21
2019-04-06T06:08:05.976Z,12.23
2019-04-06T06:09:05.982Z,12.27
2019-04-06T06:10:05.948Z,12.28
2019-04-06T06:11:06.119Z,12.34
2019-04-06T06:12:05.946Z,12.27
2019-04-06T06:13:05.926Z,12.27
2019-04-06T06:14:05.918Z,12.27
2019-04-06T06:15:05.888Z,12.32
2019-04-06T06:16:05.878Z,12.29
2019-04-06T06:17:05.885Z,12.29
2019-04-06T06:18:05.863Z,12.24
2019-04-06T06:19:05.868Z,12.32
2019-04-06T06:20:05.843Z,12.23
2019-04-06T06:21:05.827Z,12.31
2019-04-06T06:22:05.978Z,12.27
2019-04-06T06:23:05.803Z,12.31
2019-04-06T06:24:05.796Z,12.29
2019-04-06T06:25:05.779Z,12.29
2019-04-06T06:26:05.986Z,12.27
2019-04-06T06:27:05.758Z,12.37
2019-04-06T06:28:14.179Z,12.37
2019-04-06T06:29:06.747Z,12.42
2019-04-06T06:30:05.723Z,12.35
2019-04-06T06:31:05.706Z,12.39
2019-04-06T06:32:05.695Z,12.41
2019-04-06T06:33:05.726Z,12.47
2019-04-06T06:34:05.699Z,12.47
2019-04-06T06:35:05.682Z,12.50
2019-04-06T06:36:05.658Z,12.52
2019-04-06T06:37:05.647Z,12.56
2019-04-06T06:38:05.636Z,12.47
2019-04-06T06:39:05.646Z,12.52
2019-04-06T06:40:05.608Z,12.56
2019-04-06T06:41:05.596Z,12.52
2019-04-06T06:42:05.597Z,12.52
2019-04-06T06:43:05.829Z,12.57
2019-04-06T06:44:05.691Z,12.54
2019-04-06T06:45:05.553Z,12.62
2019-04-06T06:46:05.572Z,12.65
2019-04-06T06:47:05.604Z,12.62
2019-04-06T06:48:05.522Z,12.62
2019-04-06T06:49:05.514Z,12.71
2019-04-06T06:50:05.537Z,12.74
2019-04-06T06:51:05.500Z,12.65
2019-04-06T06:52:05.467Z,12.70
2019-04-06T06:53:05.472Z,12.67
2019-04-06T06:54:07.346Z,12.67
2019-04-06T06:55:05.482Z,12.75
2019-04-06T06:56:05.431Z,12.71
2019-04-06T06:57:05.510Z,12.74
2019-04-06T06:58:05.541Z,12.75
2019-04-06T06:59:05.406Z,12.85
2019-04-06T07:00:05.479Z,12.78
2019-04-06T07:01:05.388Z,12.89
2019-04-06T07:02:05.373Z,12.90
2019-04-06T07:03:05.368Z,13.05
2019-04-06T07:04:05.555Z,13.03
2019-04-06T07:05:05.403Z,13.08
2019-04-06T07:06:05.482Z,13.07
2019-04-06T07:07:05.326Z,13.04
2019-04-06T07:08:05.322Z,13.15
2019-04-06T07:09:05.287Z,13.22
2019-04-06T07:10:06.422Z,13.15
2019-04-06T07:11:05.263Z,13.12
2019-04-06T07:12:05.247Z,13.08
2019-04-06T07:13:05.255Z,13.08
2019-04-06T07:14:05.266Z,13.12
2019-04-06T07:15:05.231Z,13.19
2019-04-06T07:16:05.359Z,13.19
2019-04-06T07:17:05.228Z,13.11
2019-04-06T07:18:05.193Z,13.15
2019-04-06T07:19:05.199Z,13.12
2019-04-06T07:20:05.182Z,13.10
2019-04-06T07:21:05.160Z,13.19
2019-04-06T07:22:05.153Z,13.11
2019-04-06T07:23:05.252Z,13.19
2019-04-06T07:24:05.149Z,13.14
2019-04-06T07:25:05.126Z,13.07
2019-04-06T07:26:05.169Z,13.22
2019-04-06T07:27:05.120Z,13.10
2019-04-06T07:28:05.102Z,13.23
2019-04-06T07:29:05.074Z,13.17
2019-04-06T07:30:05.095Z,13.23
2019-04-06T07:31:05.052Z,13.25
2019-04-06T07:32:05.120Z,13.23
2019-04-06T07:33:05.029Z,13.28
2019-04-06T07:34:05.007Z,13.33
2019-04-06T07:35:05.013Z,13.28
2019-04-06T07:36:05.007Z,13.26
2019-04-06T07:37:04.987Z,13.29
2019-04-06T07:38:04.980Z,13.30
2019-04-06T07:39:04.957Z,13.38
2019-04-06T07:40:04.949Z,13.39
2019-04-06T07:41:05.099Z,13.33
2019-04-06T07:42:04.924Z,13.45
2019-04-06T07:43:04.914Z,13.48
2019-04-06T07:44:06.105Z,13.45
2019-04-06T07:45:04.895Z,13.49
2019-04-06T07:46:05.048Z,13.52
2019-04-06T07:47:04.963Z,13.55
2019-04-06T07:48:04.913Z,13.59
2019-04-06T07:49:09.179Z,13.62
2019-04-06T07:50:05.840Z,13.60
2019-04-06T07:51:04.849Z,13.62
2019-04-06T07:52:04.834Z,13.71
2019-04-06T07:53:04.817Z,13.64
2019-04-06T07:54:04.794Z,13.63
2019-04-06T07:55:04.805Z,13.63
2019-04-06T07:56:04.804Z,13.70
2019-04-06T07:57:04.753Z,13.70
2019-04-06T07:58:04.751Z,13.66
2019-04-06T07:59:05.006Z,13.66
2019-04-06T08:00:04.740Z,13.73
2019-04-06T08:01:04.753Z,13.66
2019-04-06T08:02:04.755Z,13.77
2019-04-06T08:03:04.761Z,13.75
2019-04-06T08:04:04.859Z,13.79
2019-04-06T08:05:04.718Z,13.78
2019-04-06T08:06:04.656Z,13.78
2019-04-06T08:07:04.877Z,13.87
2019-04-06T08:08:04.657Z,13.85
2019-04-06T08:09:04.633Z,13.79
2019-04-06T08:10:04.615Z,13.85
2019-04-06T08:11:04.734Z,13.82
2019-04-06T08:12:04.628Z,13.85
2019-04-06T08:13:04.589Z,13.88
2019-04-06T08:14:04.810Z,13.78
2019-04-06T08:15:04.554Z,13.88
2019-04-06T08:16:04.544Z,13.91
2019-04-06T08:17:04.566Z,13.97
2019-04-06T08:18:04.612Z,13.99
2019-04-06T08:19:04.520Z,13.97
2019-04-06T08:20:04.527Z,13.95
2019-04-06T08:21:04.494Z,13.96
2019-04-06T08:22:04.680Z,14.02
2019-04-06T08:23:04.462Z,14.06
2019-04-06T08:24:04.466Z,14.04
2019-04-06T08:25:04.449Z,14.07
2019-04-06T08:26:04.444Z,14.14
2019-04-06T08:27:04.490Z,14.15
2019-04-06T08:28:04.419Z,14.15
2019-04-06T08:29:04.399Z,14.14
2019-04-06T08:30:04.674Z,14.15
2019-04-06T08:31:04.374Z,14.21
2019-04-06T08:32:04.393Z,14.24
2019-04-06T08:33:04.352Z,14.25
2019-04-06T08:34:04.367Z,14.24
2019-04-06T08:35:04.346Z,14.24
2019-04-06T08:36:04.338Z,14.33
2019-04-06T08:37:04.490Z,14.36
2019-04-06T08:38:04.318Z,14.37
2019-04-06T08:39:04.304Z,14.46
2019-04-06T08:40:04.296Z,14.46
2019-04-06T08:41:04.280Z,14.42
2019-04-06T08:42:04.249Z,14.40
2019-04-06T08:43:04.456Z,14.43
2019-04-06T08:44:04.242Z,14.50
2019-04-06T08:45:04.236Z,14.52
2019-04-06T08:46:04.216Z,14.42
2019-04-06T08:47:04.217Z,14.51
2019-04-06T08:48:04.244Z,14.50
2019-04-06T08:49:04.379Z,14.54
2019-04-06T08:50:04.180Z,14.58
2019-04-06T08:51:04.158Z,14.58
2019-04-06T08:52:04.156Z,14.58
2019-04-06T08:53:04.349Z,14.58
2019-04-06T08:54:04.248Z,14.72
2019-04-06T08:55:04.106Z,14.80
2019-04-06T08:56:04.169Z,14.77
2019-04-06T08:57:04.092Z,14.78
2019-04-06T08:58:04.120Z,14.81
2019-04-06T08:59:11.220Z,14.78
2019-04-06T09:00:05.057Z,14.88
2019-04-06T09:01:04.043Z,14.89
2019-04-06T09:02:04.190Z,14.88
2019-04-06T09:03:04.060Z,14.88
2019-04-06T09:04:04.015Z,14.91
2019-04-06T09:05:04.010Z,14.88
2019-04-06T09:06:03.988Z,14.89
2019-04-06T09:07:03.987Z,14.94
2019-04-06T09:08:03.974Z,14.98
2019-04-06T09:09:03.992Z,15.02
2019-04-06T09:10:03.977Z,15.03
2019-04-06T09:11:03.968Z,15.10
2019-04-06T09:12:04.042Z,15.11
2019-04-06T09:13:03.988Z,15.13
2019-04-06T09:14:03.935Z,15.10
2019-04-06T09:15:04.000Z,15.28
2019-04-06T09:16:04.170Z,15.29
2019-04-06T09:17:03.859Z,15.27
2019-04-06T09:18:03.865Z,15.27
2019-04-06T09:19:03.870Z,15.32
2019-04-06T09:20:04.101Z,15.34
2019-04-06T09:21:03.831Z,15.34
2019-04-06T09:22:03.825Z,15.38
2019-04-06T09:23:03.798Z,15.50
2019-04-06T09:24:03.818Z,15.47
2019-04-06T09:25:03.777Z,15.50
2019-04-06T09:26:03.774Z,15.49
2019-04-06T09:27:03.816Z,15.44
2019-04-06T09:28:03.754Z,15.46
2019-04-06T09:29:04.177Z,15.49
2019-04-06T09:30:03.739Z,15.54
2019-04-06T09:31:03.718Z,15.67
2019-04-06T09:32:03.704Z,15.71
2019-04-06T09:33:03.757Z,15.83
2019-04-06T09:34:03.683Z,15.86
2019-04-06T09:35:03.863Z,15.89
2019-04-06T09:36:03.659Z,15.86
2019-04-06T09:37:03.879Z,16.00
2019-04-06T09:38:03.640Z,16.00
2019-04-06T09:39:03.621Z,15.86
2019-04-06T09:40:03.650Z,15.96
2019-04-06T09:41:03.634Z,15.97
2019-04-06T09:42:03.674Z,16.04
2019-04-06T09:43:03.583Z,16.04
2019-04-06T09:44:03.569Z,16.08
2019-04-06T09:45:03.792Z,16.15
2019-04-06T09:46:03.557Z,16.21
2019-04-06T09:47:03.560Z,16.24
2019-04-06T09:48:03.535Z,16.33
2019-04-06T09:49:03.811Z,16.28
2019-04-06T09:50:03.515Z,16.41
2019-04-06T09:51:03.492Z,16.33
2019-04-06T09:52:03.492Z,16.31
2019-04-06T09:53:03.480Z,16.43
2019-04-06T09:54:06.415Z,16.39
2019-04-06T09:55:03.464Z,16.50
2019-04-06T09:56:03.436Z,16.52
2019-04-06T09:57:03.804Z,16.57
2019-04-06T09:58:03.494Z,16.52
2019-04-06T09:59:03.412Z,16.61
2019-04-06T10:00:03.427Z,16.66
2019-04-06T10:01:03.643Z,16.67
2019-04-06T10:02:03.374Z,16.70
2019-04-06T10:03:03.486Z,16.73
2019-04-06T10:04:03.360Z,16.78
2019-04-06T10:05:03.343Z,16.73
2019-04-06T10:06:03.534Z,16.71
2019-04-06T10:07:03.333Z,16.73
2019-04-06T10:08:03.353Z,16.78
2019-04-06T10:09:03.280Z,16.73
2019-04-06T10:10:03.359Z,16.76
2019-04-06T10:11:03.501Z,16.73
2019-04-06T10:12:04.447Z,16.76
2019-04-06T10:13:03.262Z,16.82
2019-04-06T10:14:03.271Z,16.89
2019-04-06T10:15:03.218Z,16.97
2019-04-06T10:16:03.221Z,16.97
2019-04-06T10:17:03.214Z,17.00
2019-04-06T10:18:03.196Z,17.07
2019-04-06T10:19:03.217Z,17.06
2019-04-06T10:20:03.174Z,17.11
2019-04-06T10:21:03.184Z,17.16
2019-04-06T10:22:03.143Z,17.16
2019-04-06T10:23:03.423Z,17.18
2019-04-06T10:24:03.128Z,17.18
2019-04-06T10:25:03.122Z,17.23
2019-04-06T10:26:03.302Z,17.41
2019-04-06T10:27:03.120Z,17.40
2019-04-06T10:28:03.078Z,17.41
2019-04-06T10:29:03.082Z,17.48
2019-04-06T10:30:03.285Z,17.46
2019-04-06T10:31:03.365Z,17.51
2019-04-06T10:32:03.553Z,17.51
2019-04-06T10:33:03.194Z,17.58
2019-04-06T10:34:03.108Z,17.59
2019-04-06T10:35:03.006Z,17.55
2019-04-06T10:36:03.188Z,17.68
2019-04-06T10:37:03.028Z,17.68
2019-04-06T10:38:02.973Z,17.64
2019-04-06T10:39:02.957Z,17.72
2019-04-06T10:40:02.951Z,17.68
2019-04-06T10:41:02.934Z,17.66
2019-04-06T10:42:02.945Z,17.70
2019-04-06T10:43:02.934Z,17.75
2019-04-06T10:44:02.911Z,17.72
2019-04-06T10:45:02.898Z,17.84
2019-04-06T10:46:02.885Z,17.77
2019-04-06T10:47:02.884Z,17.84
2019-04-06T10:48:02.854Z,17.82
2019-04-06T10:49:02.852Z,17.87
2019-04-06T10:50:02.826Z,17.87
2019-04-06T10:51:02.819Z,17.87
2019-04-06T10:52:02.829Z,17.92
2019-04-06T10:53:02.811Z,17.92
2019-04-06T10:54:03.059Z,17.97
2019-04-06T10:55:02.854Z,17.97
2019-04-06T10:56:02.766Z,17.97
2019-04-06T10:57:02.778Z,17.97
2019-04-06T10:58:02.772Z,18.03
2019-04-06T10:59:03.731Z,18.17
2019-04-06T11:00:03.454Z,18.18
2019-04-06T11:01:02.727Z,18.21
2019-04-06T11:02:02.711Z,18.23
2019-04-06T11:03:02.726Z,18.18
2019-04-06T11:04:02.679Z,18.23
2019-04-06T11:05:02.669Z,18.20
2019-04-06T11:06:02.668Z,18.25
2019-04-06T11:07:02.655Z,18.21
2019-04-06T11:08:02.659Z,18.32
2019-04-06T11:09:02.638Z,18.29
2019-04-06T11:10:02.619Z,18.37
2019-04-06T11:11:03.254Z,18.39
2019-04-06T11:12:02.597Z,18.48
2019-04-06T11:13:02.798Z,18.51
2019-04-06T11:14:02.567Z,18.55
2019-04-06T11:15:02.572Z,18.48
2019-04-06T11:16:02.699Z,18.57
2019-04-06T11:17:02.568Z,18.55
2019-04-06T11:18:02.523Z,18.63
2019-04-06T11:19:02.628Z,18.51
2019-04-06T11:20:02.501Z,18.52
2019-04-06T11:21:02.512Z,18.52
2019-04-06T11:22:02.525Z,18.55
2019-04-06T11:23:02.468Z,18.57
2019-04-06T11:24:02.610Z,18.58
2019-04-06T11:25:02.451Z,18.57
2019-04-06T11:26:02.697Z,18.58
2019-04-06T11:27:02.434Z,18.54
2019-04-06T11:28:03.965Z,18.52
2019-04-06T11:29:02.432Z,18.44
2019-04-06T11:30:11.995Z,18.45
2019-04-06T11:31:03.389Z,18.42
2019-04-06T11:32:02.545Z,18.51
2019-04-06T11:33:02.588Z,18.55
2019-04-06T11:34:02.372Z,18.55
2019-04-06T11:35:02.338Z,18.62
2019-04-06T11:36:02.325Z,18.58
2019-04-06T11:37:02.311Z,18.69
2019-04-06T11:38:02.315Z,18.66
2019-04-06T11:39:02.489Z,18.50
2019-04-06T11:40:02.300Z,18.57
2019-04-06T11:41:02.348Z,18.47
2019-04-06T11:42:02.264Z,18.51
2019-04-06T11:43:02.247Z,18.55
2019-04-06T11:44:02.253Z,18.57
2019-04-06T11:45:02.240Z,18.63
2019-04-06T11:46:02.288Z,18.63
2019-04-06T11:47:02.461Z,18.75
2019-04-06T11:48:02.196Z,18.75
2019-04-06T11:49:02.220Z,18.72
2019-04-06T11:50:02.172Z,18.76
2019-04-06T11:51:02.194Z,18.76
2019-04-06T11:52:02.152Z,18.75
2019-04-06T11:53:02.150Z,18.67
2019-04-06T11:54:02.317Z,18.80
2019-04-06T11:55:02.115Z,18.75
2019-04-06T11:56:02.112Z,18.82
2019-04-06T11:57:02.096Z,18.91
2019-04-06T11:58:02.199Z,19.02
2019-04-06T11:59:02.103Z,18.95
2019-04-06T12:00:02.400Z,19.04
2019-04-06T12:01:02.041Z,19.07
2019-04-06T12:02:02.039Z,19.00
2019-04-06T12:03:02.014Z,19.02
2019-04-06T12:04:02.300Z,18.98
2019-04-06T12:05:02.002Z,18.87
2019-04-06T12:06:02.336Z,18.98
2019-04-06T12:07:01.987Z,18.99
2019-04-06T12:08:01.973Z,19.06
2019-04-06T12:09:01.962Z,19.07
2019-04-06T12:10:01.941Z,19.13
2019-04-06T12:11:01.948Z,19.07
2019-04-06T12:12:01.928Z,19.13
2019-04-06T12:13:01.994Z,19.10
2019-04-06T12:14:01.962Z,19.11
2019-04-06T12:15:01.922Z,19.06
2019-04-06T12:16:01.889Z,19.16
2019-04-06T12:17:02.249Z,19.18
2019-04-06T12:18:02.343Z,19.11
2019-04-06T12:19:01.859Z,19.21
2019-04-06T12:20:01.836Z,19.25
2019-04-06T12:21:01.836Z,19.29
2019-04-06T12:22:01.919Z,19.25
2019-04-06T12:23:02.003Z,19.19
2019-04-06T12:24:01.807Z,19.22
2019-04-06T12:25:01.796Z,19.16
2019-04-06T12:26:01.764Z,19.25
2019-04-06T12:27:01.771Z,19.19
2019-04-06T12:28:01.994Z,19.11
2019-04-06T12:29:01.826Z,19.16
2019-04-06T12:30:01.758Z,19.18
2019-04-06T12:31:01.713Z,19.19
2019-04-06T12:32:01.708Z,19.16
2019-04-06T12:33:01.708Z,19.19
2019-04-06T12:34:01.701Z,19.26
2019-04-06T12:35:01.994Z,19.39
2019-04-06T12:36:01.663Z,19.44
2019-04-06T12:37:01.659Z,19.44
2019-04-06T12:38:01.643Z,19.47
2019-04-06T12:39:01.697Z,19.51
2019-04-06T12:40:01.609Z,19.54
2019-04-06T12:41:01.609Z,19.58
2019-04-06T12:42:01.763Z,19.48
2019-04-06T12:43:01.592Z,19.44
2019-04-06T12:44:01.596Z,19.61
2019-04-06T12:45:01.587Z,19.56
2019-04-06T12:46:01.552Z,19.59
2019-04-06T12:47:01.911Z,19.58
2019-04-06T12:48:01.802Z,19.66
2019-04-06T12:49:01.529Z,19.62
2019-04-06T12:50:01.639Z,19.68
2019-04-06T12:51:01.567Z,19.68
2019-04-06T12:52:01.568Z,19.71